No particular awareness of the weather is required.    There are no Weather-warnings


Meteo18 Weather Cam more information Meteo18 Weather Cam


Thunder radar more information blitzortung!


Rain radar more information rain snow radar


Visit our other weather sites:

Template documentation
and downloads

And another site



Weather Underground History page Text

Daily Summary for August 15, 2017 Units:  English    Metric   Both
« Previous Day
Next Day »
Daily Weekly Monthly Yearly Custom
  High: Low: Average:
Temperature: TemperatureC °F 17.9 °F 20.5 °F
Dew Point: DewpointC °F 15.4 °F 17.2 °F
Humidity: Humidity % 62 % 81 %
Wind Speed: WindSpeedKMH mph 0.0 mph 4.3 mph
Wind Gust: WindSpeedGustKMH mph - -
Wind:- - SW
Pressure: PressurehPa in 1015.5 in -
Precipitation: 4.1 in    
Historical Graphs
 
 
Tabular Data for August 15, 2017
Time Temperature Dew Point Pressure Wind Wind Speed Wind Gust Humidity Rainfall Rate (Hourly)
TemperatureC °F DewpointC °F PressurehPa in Calm     Humidity % HourlyPrecipMM in
00:02 20.1 °F 15.5 °F 1015.8 in Calm     75 % 0.0 in
00:07 20.2 °F 15.6 °F 1015.8 in Calm     75 % 0.0 in
00:12 20.2 °F 15.6 °F 1015.8 in Calm     75 % 0.0 in
00:17 20.2 °F 15.8 °F 1015.8 in Calm     76 % 0.0 in
00:22 19.9 °F 15.7 °F 1015.8 in Calm     77 % 0.0 in
00:32 19.9 °F 15.7 °F 1015.8 in Calm     77 % 0.0 in
00:42 19.8 °F 15.7 °F 1015.8 in Calm     77 % 0.0 in
00:52 19.7 °F 15.6 °F 1015.5 in Calm     77 % 0.0 in
00:57 19.7 °F 15.6 °F 1015.5 in Calm     77 % 0.0 in
01:02 19.6 °F 15.5 °F 1015.5 in Calm     77 % 0.0 in
01:12 19.4 °F 15.5 °F 1015.5 in Calm     78 % 0.0 in
01:17 19.4 °F 15.5 °F 1015.5 in Calm     78 % 0.0 in
01:22 19.3 °F 15.6 °F 1015.5 in Calm     79 % 0.0 in
01:32 19.3 °F 15.4 °F 1015.5 in Calm     78 % 0.0 in
01:37 19.3 °F 15.4 °F 1015.5 in Calm     78 % 0.0 in
01:42 19.2 °F 15.5 °F 1015.5 in Calm     79 % 0.0 in
01:47 19.1 °F 15.6 °F 1015.5 in Calm     80 % 0.0 in
01:52 19.0 °F 15.5 °F 1015.5 in Calm     80 % 0.0 in
01:57 19.0 °F 15.5 °F 1015.5 in Calm     80 % 0.0 in
02:02 19.0 °F 15.5 °F 1015.5 in Calm     80 % 0.0 in
02:07 19.1 °F 15.6 °F 1015.8 in Calm     80 % 0.0 in
02:12 19.0 °F 15.5 °F 1015.8 in Calm     80 % 0.0 in
02:17 18.9 °F 15.6 °F 1015.8 in Calm     81 % 0.0 in
02:22 18.9 °F 15.4 °F 1015.8 in Calm     80 % 0.0 in
02:27 19.2 °F 15.7 °F 1015.8 in Calm     80 % 0.0 in
02:32 19.2 °F 15.7 °F 1015.8 in Calm     80 % 0.0 in
02:37 19.2 °F 15.5 °F 1015.8 in Calm     79 % 0.0 in
02:42 19.2 °F 15.5 °F 1015.8 in Calm     79 % 0.0 in
02:47 19.3 °F 15.6 °F 1015.8 in Calm     79 % 0.0 in
02:52 19.3 °F 15.6 °F 1015.8 in Calm     79 % 0.0 in
02:57 19.3 °F 15.8 °F 1015.8 in Calm     80 % 0.0 in
03:02 19.3 °F 15.6 °F 1015.8 in Calm     79 % 0.0 in
03:12 19.4 °F 15.7 °F 1015.8 in Calm     79 % 0.0 in
03:17 19.3 °F 15.6 °F 1015.8 in Calm     79 % 0.0 in
03:22 19.4 °F 15.7 °F 1015.8 in Calm     79 % 0.0 in
03:32 20.1 °F 15.7 °F 1015.8 in Calm     76 % 0.0 in
03:37 20.2 °F 15.8 °F 1015.8 in SSW 3.2 mph   76 % 0.0 in
03:42 20.0 °F 15.8 °F 1015.5 in SW 1.6 mph 6.4 mph 77 % 0.0 in
03:52 19.8 °F 15.9 °F 1015.8 in Calm   4.8 mph 78 % 0.0 in
03:57 19.7 °F 16.0 °F 1015.8 in Calm   4.8 mph 79 % 0.0 in
04:02 19.5 °F 16.0 °F 1015.8 in SSE 1.6 mph 4.8 mph 80 % 0.0 in
04:07 19.4 °F 15.9 °F 1015.8 in SSW 1.6 mph 4.8 mph 80 % 0.0 in
04:12 19.4 °F 15.9 °F 1015.8 in Calm   4.8 mph 80 % 0.0 in
04:17 19.4 °F 15.9 °F 1015.8 in Calm   4.8 mph 80 % 0.0 in
04:22 19.4 °F 15.9 °F 1015.8 in Calm   4.8 mph 80 % 0.0 in
04:32 19.3 °F 16.0 °F 1015.5 in Calm   3.2 mph 81 % 0.0 in
04:37 19.1 °F 16.0 °F 1015.8 in Calm   3.2 mph 82 % 0.0 in
04:42 19.0 °F 15.9 °F 1015.5 in Calm     82 % 0.0 in
04:47 18.9 °F 15.9 °F 1015.8 in Calm     83 % 0.0 in
04:52 18.9 °F 15.9 °F 1015.8 in Calm     83 % 0.0 in
04:57 18.9 °F 15.9 °F 1015.8 in Calm     83 % 0.0 in
05:02 18.9 °F 15.9 °F 1015.8 in SSW 3.2 mph   83 % 0.0 in
05:17 18.7 °F 16.1 °F 1015.8 in SW 1.6 mph 6.4 mph 85 % 0.0 in
05:22 18.7 °F 16.3 °F 1015.8 in SW 6.4 mph 6.4 mph 86 % 0.0 in
05:32 18.9 °F 16.5 °F 1015.8 in SW 3.2 mph 16.1 mph 86 % 1.8 in
05:37 18.8 °F 16.6 °F 1015.8 in SSW 3.2 mph 16.1 mph 87 % 2.5 in
05:42 18.6 °F 16.6 °F 1015.5 in SSW 1.6 mph 16.1 mph 88 % 2.5 in
05:47 18.4 °F 16.6 °F 1015.8 in South 1.6 mph 8.0 mph 89 % 2.5 in
05:52 18.4 °F 16.6 °F 1015.8 in Calm   4.8 mph 89 % 2.5 in
06:02 18.3 °F 16.6 °F 1015.8 in Calm   4.8 mph 90 % 2.5 in
06:12 18.4 °F 16.6 °F 1015.8 in SSW 1.6 mph 3.2 mph 89 % 2.5 in
06:17 18.3 °F 16.5 °F 1015.8 in SW 4.8 mph 4.8 mph 89 % 2.5 in
06:22 18.4 °F 16.7 °F 1016.1 in SW 3.2 mph 4.8 mph 90 % 2.5 in
06:27 18.3 °F 16.6 °F 1015.8 in Calm   4.8 mph 90 % 2.5 in
06:32 18.3 °F 16.6 °F 1015.8 in Calm   6.4 mph 90 % 0.0 in
06:42 18.3 °F 16.6 °F 1015.8 in Calm   4.8 mph 90 % 0.0 in
06:47 18.1 °F 16.6 °F 1015.8 in Calm   4.8 mph 91 % 0.0 in
06:52 18.1 °F 16.6 °F 1016.1 in Calm   4.8 mph 91 % 0.0 in
06:57 18.1 °F 16.6 °F 1016.1 in Calm   4.8 mph 91 % 0.0 in
07:02 18.1 °F 16.6 °F 1016.1 in Calm   1.6 mph 91 % 0.0 in
07:07 18.1 °F 16.4 °F 1016.1 in Calm   1.6 mph 90 % 0.0 in
07:12 18.1 °F 16.4 °F 1016.1 in Calm   1.6 mph 90 % 0.0 in
07:17 18.1 °F 16.4 °F 1016.1 in Calm   1.6 mph 90 % 0.0 in
07:27 18.2 °F 16.5 °F 1016.5 in Calm   1.6 mph 90 % 0.0 in
07:32 18.3 °F 16.6 °F 1016.5 in Calm     90 % 0.0 in
07:37 18.2 °F 16.5 °F 1016.5 in Calm     90 % 0.0 in
07:42 18.2 °F 16.7 °F 1016.5 in Calm     91 % 0.0 in
07:47 18.0 °F 16.5 °F 1016.8 in Calm   1.6 mph 91 % 0.0 in
07:57 17.9 °F 16.4 °F 1016.8 in WSW 1.6 mph 1.6 mph 91 % 0.0 in
08:02 18.0 °F 16.5 °F 1016.8 in SSW 1.6 mph 1.6 mph 91 % 0.0 in
08:07 18.2 °F 16.7 °F 1016.8 in Calm   3.2 mph 91 % 0.0 in
08:12 18.3 °F 16.6 °F 1016.8 in Calm   3.2 mph 90 % 0.0 in
08:17 18.4 °F 16.7 °F 1016.8 in SSW 1.6 mph 4.8 mph 90 % 0.0 in
08:22 18.6 °F 16.9 °F 1016.8 in SW 1.6 mph 4.8 mph 90 % 0.0 in
08:32 18.9 °F 16.9 °F 1016.8 in SW 6.4 mph 6.4 mph 88 % 0.0 in
08:37 19.1 °F 16.9 °F 1017.2 in SSW 4.8 mph 8.0 mph 87 % 0.0 in
08:42 19.1 °F 16.9 °F 1017.2 in SW 8.0 mph 9.7 mph 87 % 0.0 in
08:52 19.2 °F 17.2 °F 1017.2 in SSW 4.8 mph 9.7 mph 88 % 0.0 in
08:57 19.3 °F 17.1 °F 1017.2 in SSW 4.8 mph 9.7 mph 87 % 0.0 in
09:07 19.9 °F 17.5 °F 1017.5 in SW 6.4 mph 9.7 mph 86 % 0.0 in
09:17 20.8 °F 18.2 °F 1017.2 in SW 4.8 mph 11.3 mph 85 % 0.0 in
09:22 21.4 °F 18.0 °F 1017.2 in SSW 12.9 mph 12.9 mph 81 % 0.0 in
09:27 21.9 °F 17.9 °F 1017.2 in SSW 11.3 mph 17.7 mph 78 % 0.0 in
09:32 22.1 °F 17.9 °F 1017.2 in WSW 8.0 mph 19.3 mph 77 % 0.0 in
09:37 22.1 °F 17.9 °F 1017.2 in SW 11.3 mph 19.3 mph 77 % 0.0 in
09:42 22.1 °F 17.9 °F 1017.5 in SW 6.4 mph 17.7 mph 77 % 0.0 in
09:47 22.1 °F 17.5 °F 1017.2 in SW 8.0 mph 16.1 mph 75 % 0.0 in
09:52 22.2 °F 17.6 °F 1017.2 in WSW 14.5 mph 16.1 mph 75 % 0.0 in
10:02 22.6 °F 17.3 °F 1017.2 in SW 11.3 mph 25.7 mph 72 % 0.0 in
10:12 22.6 °F 17.1 °F 1017.5 in WSW 6.4 mph 27.4 mph 71 % 0.0 in
10:17 22.6 °F 17.1 °F 1017.5 in West 8.0 mph 27.4 mph 71 % 0.0 in
10:22 22.6 °F 17.3 °F 1017.8 in SSW 4.8 mph 24.1 mph 72 % 0.0 in
10:32 22.8 °F 17.5 °F 1017.8 in SW 8.0 mph 17.7 mph 72 % 0.0 in
10:37 22.9 °F 17.6 °F 1017.8 in SW 9.7 mph 17.7 mph 72 % 0.3 in
10:42 23.0 °F 17.7 °F 1017.8 in SSW 8.0 mph 19.3 mph 72 % 0.3 in
10:47 23.2 °F 17.2 °F 1017.8 in West 9.7 mph 24.1 mph 69 % 0.3 in
10:52 23.5 °F 17.5 °F 1017.8 in SW 9.7 mph 24.1 mph 69 % 0.3 in
10:57 23.8 °F 17.8 °F 1017.8 in WSW 12.9 mph 24.1 mph 69 % 0.3 in
11:02 23.9 °F 17.9 °F 1017.8 in West 4.8 mph 20.9 mph 69 % 0.3 in
11:12 24.2 °F 17.4 °F 1017.8 in SSW 8.0 mph 19.3 mph 66 % 0.3 in
11:17 24.4 °F 18.1 °F 1017.8 in West 1.6 mph 17.7 mph 68 % 0.3 in
11:22 24.6 °F 17.6 °F 1017.8 in SW 12.9 mph 17.7 mph 65 % 0.3 in
11:32 24.9 °F 17.1 °F 1017.8 in WSW 12.9 mph 22.5 mph 62 % 0.0 in
11:42 24.8 °F 17.0 °F 1017.8 in West 8.0 mph 24.1 mph 62 % 0.0 in
11:47 24.7 °F 17.4 °F 1018.2 in SW 9.7 mph 20.9 mph 64 % 0.0 in
11:52 24.7 °F 17.2 °F 1018.2 in WSW 11.3 mph 17.7 mph 63 % 0.0 in
11:57 24.5 °F 17.0 °F 1018.5 in WSW 16.1 mph 17.7 mph 63 % 0.0 in
12:02 24.3 °F 16.8 °F 1018.8 in West 9.7 mph 16.1 mph 63 % 0.0 in
12:07 24.1 °F 16.6 °F 1019.2 in SW 11.3 mph 24.1 mph 63 % 0.0 in
12:12 24.0 °F 16.8 °F 1019.5 in West 24.1 mph 24.1 mph 64 % 0.0 in
12:17 23.8 °F 16.3 °F 1019.9 in WSW 16.1 mph 33.8 mph 63 % 0.0 in
12:22 23.6 °F 16.1 °F 1019.9 in West 20.9 mph 37.0 mph 63 % 0.0 in
12:27 23.2 °F 15.8 °F 1019.9 in WNW 19.3 mph 37.0 mph 63 % 0.0 in
12:32 22.7 °F 15.5 °F 1019.9 in West 33.8 mph 37.0 mph 64 % 0.0 in
12:42 20.8 °F 16.2 °F 1019.9 in West 11.3 mph 45.1 mph 75 % 0.0 in
12:47 20.1 °F 16.3 °F 1019.5 in West 4.8 mph 45.1 mph 79 % 0.0 in
12:52 19.7 °F 16.2 °F 1019.5 in WNW 11.3 mph 35.4 mph 80 % 0.5 in
12:57 19.5 °F 16.2 °F 1019.5 in WSW 6.4 mph 35.4 mph 81 % 0.5 in
13:02 19.2 °F 16.1 °F 1019.5 in SSW 1.6 mph 14.5 mph 82 % 0.5 in
13:12 18.9 °F 16.5 °F 1019.5 in Calm   11.3 mph 86 % 0.8 in
13:17 18.8 °F 16.6 °F 1019.2 in SSE 1.6 mph 11.3 mph 87 % 1.0 in
13:22 18.7 °F 16.7 °F 1019.2 in Calm   11.3 mph 88 % 1.0 in
13:32 18.6 °F 16.6 °F 1018.8 in West 3.2 mph 3.2 mph 88 % 1.3 in
13:42 18.8 °F 17.1 °F 1018.5 in SE 3.2 mph 8.0 mph 90 % 1.3 in
13:52 19.2 °F 17.7 °F 1017.8 in Calm   6.4 mph 91 % 0.5 in
13:57 19.4 °F 17.9 °F 1018.2 in Calm   6.4 mph 91 % 0.5 in
14:02 19.4 °F 17.5 °F 1018.2 in SSW 1.6 mph 4.8 mph 89 % 0.5 in
14:07 19.4 °F 17.4 °F 1018.5 in West 1.6 mph 4.8 mph 88 % 0.5 in
14:12 19.6 °F 17.7 °F 1018.2 in Calm   4.8 mph 89 % 0.3 in
14:17 19.7 °F 17.7 °F 1018.5 in Calm   4.8 mph 88 % 0.3 in
14:22 19.8 °F 17.8 °F 1018.8 in Calm   4.8 mph 88 % 0.3 in
14:27 19.9 °F 17.9 °F 1018.8 in SW 1.6 mph 4.8 mph 88 % 0.0 in
14:32 20.1 °F 18.0 °F 1018.8 in SSW 1.6 mph 6.4 mph 88 % 0.0 in
14:42 20.3 °F 17.9 °F 1019.5 in SW 4.8 mph 9.7 mph 86 % 0.0 in
14:47 20.3 °F 17.7 °F 1019.5 in WSW 8.0 mph 11.3 mph 85 % 0.0 in
14:52 20.3 °F 17.9 °F 1019.9 in West 8.0 mph 12.9 mph 86 % 0.0 in
14:57 20.3 °F 18.1 °F 1019.9 in SW 12.9 mph 19.3 mph 87 % 0.0 in
15:02 20.3 °F 17.9 °F 1019.9 in WSW 9.7 mph 19.3 mph 86 % 0.0 in
15:07 20.3 °F 18.1 °F 1019.9 in West 3.2 mph 19.3 mph 87 % 0.0 in
15:12 20.4 °F 18.2 °F 1020.2 in WSW 9.7 mph 19.3 mph 87 % 0.0 in
15:17 20.4 °F 18.2 °F 1020.2 in SW 4.8 mph 19.3 mph 87 % 0.0 in
15:22 20.6 °F 18.4 °F 1020.2 in SW 16.1 mph 19.3 mph 87 % 0.0 in
15:27 20.7 °F 18.5 °F 1020.2 in WSW 4.8 mph 17.7 mph 87 % 0.0 in
15:32 20.7 °F 18.5 °F 1020.2 in WSW 4.8 mph 16.1 mph 87 % 0.0 in
15:37 20.8 °F 18.4 °F 1020.2 in WSW 11.3 mph 16.1 mph 86 % 0.0 in
15:42 20.9 °F 18.5 °F 1019.9 in West 8.0 mph 14.5 mph 86 % 0.0 in
15:47 21.2 °F 18.6 °F 1019.9 in SSW 8.0 mph 14.5 mph 85 % 0.0 in
15:52 21.4 °F 18.8 °F 1019.9 in WSW 3.2 mph 16.1 mph 85 % 0.0 in
15:57 21.8 °F 19.2 °F 1020.2 in SW 14.5 mph 19.3 mph 85 % 0.0 in
16:02 22.0 °F 19.2 °F 1019.9 in West 8.0 mph 19.3 mph 84 % 0.0 in
16:12 22.3 °F 18.5 °F 1019.9 in SW 11.3 mph 20.9 mph 79 % 0.0 in
16:17 22.4 °F 18.8 °F 1019.9 in WSW 6.4 mph 20.9 mph 80 % 0.0 in
16:22 22.4 °F 18.8 °F 1019.9 in WSW 11.3 mph 20.9 mph 80 % 0.0 in
16:27 22.4 °F 18.6 °F 1019.9 in SSW 8.0 mph 19.3 mph 79 % 0.0 in
16:32 22.4 °F 18.4 °F 1019.9 in SSW 6.4 mph 19.3 mph 78 % 0.0 in
16:42 22.4 °F 18.0 °F 1019.9 in SW 11.3 mph 19.3 mph 76 % 0.0 in
16:47 22.5 °F 18.1 °F 1019.5 in SW 8.0 mph 19.3 mph 76 % 0.0 in
16:52 22.5 °F 18.3 °F 1019.5 in South 8.0 mph 19.3 mph 77 % 0.0 in
16:57 22.6 °F 18.4 °F 1019.5 in SSW 17.7 mph 17.7 mph 77 % 0.0 in
17:02 22.6 °F 18.2 °F 1019.5 in SW 8.0 mph 17.7 mph 76 % 0.0 in
17:12 22.5 °F 18.3 °F 1019.9 in WSW 12.9 mph 19.3 mph 77 % 0.0 in
17:17 22.4 °F 18.0 °F 1019.9 in SW 12.9 mph 19.3 mph 76 % 0.0 in
17:22 22.4 °F 18.2 °F 1019.9 in SSW 6.4 mph 19.3 mph 77 % 0.0 in
17:27 22.4 °F 18.4 °F 1019.9 in SSW 4.8 mph 19.3 mph 78 % 0.0 in
17:32 22.4 °F 18.4 °F 1019.9 in SW 14.5 mph 19.3 mph 78 % 0.0 in
17:37 22.4 °F 18.4 °F 1019.9 in WSW 12.9 mph 14.5 mph 78 % 0.0 in
17:42 22.3 °F 18.3 °F 1019.9 in SW 6.4 mph 14.5 mph 78 % 0.0 in
17:47 22.3 °F 18.3 °F 1019.9 in SSW 4.8 mph 14.5 mph 78 % 0.0 in
17:52 22.2 °F 18.4 °F 1019.9 in WSW 4.8 mph 14.5 mph 79 % 0.0 in
17:57 22.2 °F 18.4 °F 1019.9 in SW 6.4 mph 14.5 mph 79 % 0.0 in
18:02 22.2 °F 18.6 °F 1019.9 in SSW 8.0 mph 14.5 mph 80 % 0.0 in
18:12 22.1 °F 18.5 °F 1019.9 in SW 8.0 mph 12.9 mph 80 % 0.0 in
18:17 22.2 °F 18.8 °F 1019.9 in WSW 4.8 mph 12.9 mph 81 % 0.0 in
18:22 22.2 °F 18.6 °F 1019.9 in WSW 3.2 mph 12.9 mph 80 % 0.0 in
18:32 22.2 °F 18.6 °F 1019.5 in SSW 3.2 mph 11.3 mph 80 % 0.0 in
18:42 22.1 °F 18.9 °F 1019.5 in SW 11.3 mph 11.3 mph 82 % 0.0 in
18:52 21.9 °F 18.9 °F 1019.5 in SW 4.8 mph 14.5 mph 83 % 0.0 in
19:02 21.9 °F 18.9 °F 1019.2 in SSE 3.2 mph 12.9 mph 83 % 0.0 in
19:12 21.8 °F 18.8 °F 1018.8 in SW 3.2 mph 8.0 mph 83 % 0.0 in
19:17 21.8 °F 18.8 °F 1018.8 in SW 1.6 mph 8.0 mph 83 % 0.0 in
19:22 21.8 °F 18.6 °F 1018.8 in SW 6.4 mph 8.0 mph 82 % 0.0 in
19:32 22.1 °F 18.7 °F 1018.8 in SW 4.8 mph 8.0 mph 81 % 0.0 in
19:37 22.3 °F 18.9 °F 1019.2 in SW 8.0 mph 11.3 mph 81 % 0.0 in
19:42 22.3 °F 18.9 °F 1019.2 in SW 4.8 mph 11.3 mph 81 % 0.0 in
19:47 22.3 °F 18.9 °F 1019.5 in SW 11.3 mph 11.3 mph 81 % 0.0 in
19:52 22.3 °F 18.7 °F 1019.5 in SW 4.8 mph 16.1 mph 80 % 0.0 in
19:57 22.2 °F 18.6 °F 1019.5 in South 4.8 mph 16.1 mph 80 % 0.0 in
20:02 22.1 °F 18.7 °F 1019.5 in SW 1.6 mph 16.1 mph 81 % 0.0 in
20:12 21.9 °F 18.7 °F 1019.5 in SW 4.8 mph 11.3 mph 82 % 0.0 in
20:17 21.9 °F 18.7 °F 1019.5 in SW 8.0 mph 11.3 mph 82 % 0.0 in
20:27 21.8 °F 18.6 °F 1019.9 in WSW 3.2 mph 11.3 mph 82 % 0.0 in
20:32 21.8 °F 18.6 °F 1019.9 in Calm   11.3 mph 82 % 0.0 in
20:37 21.8 °F 18.6 °F 1019.9 in SE 1.6 mph 11.3 mph 82 % 0.0 in
20:42 21.7 °F 18.5 °F 1019.9 in WSW 3.2 mph 4.8 mph 82 % 0.0 in
20:47 21.7 °F 18.5 °F 1019.9 in Calm   4.8 mph 82 % 0.0 in
20:57 21.5 °F 18.5 °F 1019.9 in Calm   4.8 mph 83 % 0.0 in
21:02 21.4 °F 18.6 °F 1019.9 in Calm   3.2 mph 84 % 0.0 in
21:07 21.2 °F 18.6 °F 1019.9 in SE 1.6 mph 3.2 mph 85 % 0.0 in
21:12 21.1 °F 18.5 °F 1019.9 in Calm   3.2 mph 85 % 0.0 in
21:17 20.9 °F 18.5 °F 1019.9 in Calm   3.2 mph 86 % 0.0 in
21:22 20.8 °F 18.4 °F 1019.9 in Calm   3.2 mph 86 % 0.0 in
21:27 20.7 °F 18.3 °F 1019.9 in Calm   3.2 mph 86 % 0.0 in
21:32 20.5 °F 18.1 °F 1019.9 in Calm   3.2 mph 86 % 0.0 in
21:37 20.4 °F 18.2 °F 1019.9 in Calm   1.6 mph 87 % 0.0 in
21:47 20.2 °F 18.1 °F 1020.2 in Calm   1.6 mph 88 % 0.0 in
21:52 20.1 °F 18.2 °F 1020.5 in Calm   1.6 mph 89 % 0.0 in
21:57 20.0 °F 18.1 °F 1020.5 in Calm   1.6 mph 89 % 0.0 in
22:02 19.9 °F 18.2 °F 1020.5 in Calm     90 % 0.0 in
22:07 19.9 °F 18.2 °F 1020.9 in Calm     90 % 0.0 in
22:12 19.9 °F 18.2 °F 1020.9 in Calm     90 % 0.0 in
22:17 20.0 °F 18.3 °F 1021.2 in Calm     90 % 0.0 in
22:22 20.1 °F 18.4 °F 1020.9 in Calm     90 % 0.0 in
22:32 19.8 °F 18.1 °F 1020.9 in Calm     90 % 0.0 in
22:37 19.7 °F 18.0 °F 1020.9 in Calm     90 % 0.0 in
22:42 19.7 °F 18.2 °F 1020.9 in Calm     91 % 0.0 in
22:52 19.8 °F 18.5 °F 1020.9 in SW 3.2 mph 4.8 mph 92 % 0.0 in
22:57 20.0 °F 18.5 °F 1021.2 in SSW 3.2 mph 4.8 mph 91 % 0.0 in
23:02 20.1 °F 18.6 °F 1020.9 in SSW 4.8 mph 4.8 mph 91 % 0.0 in
23:12 20.1 °F 18.4 °F 1020.9 in SW 4.8 mph 6.4 mph 90 % 0.0 in
23:17 20.2 °F 18.5 °F 1020.9 in SW 3.2 mph 6.4 mph 90 % 0.0 in
23:22 20.2 °F 18.5 °F 1020.9 in SW 4.8 mph 8.0 mph 90 % 0.0 in
23:32 20.2 °F 18.5 °F 1020.9 in WSW 6.4 mph 9.7 mph 90 % 0.0 in
23:37 20.3 °F 18.6 °F 1020.9 in SW 9.7 mph 9.7 mph 90 % 0.0 in
23:42 20.3 °F 18.6 °F 1020.9 in SW 6.4 mph 11.3 mph 90 % 0.0 in
23:47 20.3 °F 18.6 °F 1020.9 in WSW 6.4 mph 11.3 mph 90 % 0.0 in
23:57 20.3 °F 18.6 °F 1020.9 in SW 8.0 mph 12.9 mph 90 % 0.0 in
Meteo18
Compliments of Weather Underground - 4 mb

Script developed by  Jim McMurry - jmcmurry@mwt.net Adapted for the template by  Wim van der Kuil - Leuven-Template.eu

You find our weather info also at:

European Weather Network

Weather Underground

Equipment we use:

Weather-station
Davis Vue

Weather-program
Meteobridge

Weather-server
Raspberry PI 2 B+

Provider
1 and 1

Davis Vue

Meteobridge

Raspberry PI 2 B+

1 and 1